createdAt,value
2018-03-21T00:00:13.254Z,67.19
2018-03-21T00:01:13.175Z,67.19
2018-03-21T00:03:05.936Z,67.19
2018-03-21T00:04:05.856Z,66.90
2018-03-21T00:05:58.600Z,67.28
2018-03-21T00:06:58.539Z,67.19
2018-03-21T00:08:51.311Z,67.09
2018-03-21T00:09:51.205Z,67.09
2018-03-21T00:11:43.994Z,67.00
2018-03-21T00:12:43.916Z,67.09
2018-03-21T00:14:36.689Z,66.90
2018-03-21T00:15:36.604Z,67.00
2018-03-21T00:17:29.370Z,67.66
2018-03-21T00:18:29.280Z,67.47
2018-03-21T00:20:22.019Z,67.57
2018-03-21T00:21:21.949Z,67.47
2018-03-21T00:23:14.729Z,67.47
2018-03-21T00:24:14.651Z,67.47
2018-03-21T00:26:07.402Z,67.47
2018-03-21T00:27:07.314Z,67.47
2018-03-21T00:29:00.090Z,67.57
2018-03-21T00:30:00.071Z,67.47
2018-03-21T00:31:52.789Z,67.47
2018-03-21T00:32:52.728Z,67.28
2018-03-21T00:34:45.498Z,67.57
2018-03-21T00:35:45.414Z,67.57
2018-03-21T00:37:38.177Z,67.57
2018-03-21T00:38:38.097Z,67.57
2018-03-21T00:40:30.856Z,67.57
2018-03-21T00:41:30.784Z,67.38
2018-03-21T00:43:23.527Z,67.38
2018-03-21T00:44:23.444Z,67.47
2018-03-21T00:46:16.344Z,67.75
2018-03-21T00:47:16.123Z,67.85
2018-03-21T00:49:08.913Z,67.85
2018-03-21T00:50:08.787Z,67.38
2018-03-21T00:52:01.550Z,67.94
2018-03-21T00:53:01.472Z,67.85
2018-03-21T00:54:54.234Z,67.57
2018-03-21T00:55:54.143Z,67.85
2018-03-21T00:57:46.891Z,67.94
2018-03-21T00:58:46.831Z,67.94
2018-03-21T01:00:39.616Z,68.04
2018-03-21T01:01:39.497Z,68.04
2018-03-21T01:03:32.251Z,68.04
2018-03-21T01:04:32.169Z,67.94
2018-03-21T01:06:24.931Z,67.94
2018-03-21T01:07:24.837Z,67.85
2018-03-21T01:09:17.606Z,67.94
2018-03-21T01:10:17.523Z,67.85
2018-03-21T01:12:10.276Z,68.32
2018-03-21T01:13:10.208Z,68.13
2018-03-21T01:15:02.971Z,67.94
2018-03-21T01:16:02.883Z,67.85
2018-03-21T01:17:55.620Z,67.94
2018-03-21T01:18:55.548Z,67.94
2018-03-21T01:20:48.379Z,68.13
2018-03-21T01:21:48.296Z,67.66
2018-03-21T01:23:41.053Z,68.04
2018-03-21T01:24:40.973Z,68.04
2018-03-21T01:26:33.729Z,68.13
2018-03-21T01:27:33.653Z,68.23
2018-03-21T01:29:26.403Z,67.66
2018-03-21T01:30:26.329Z,67.79
2018-03-21T01:32:19.070Z,67.79
2018-03-21T01:33:18.997Z,67.97
2018-03-21T01:35:11.751Z,67.50
2018-03-21T01:36:11.686Z,67.32
2018-03-21T01:38:04.432Z,67.13
2018-03-21T01:39:04.364Z,67.69
2018-03-21T01:40:57.121Z,66.94
2018-03-21T01:41:57.042Z,67.22
2018-03-21T01:43:49.791Z,66.37
2018-03-21T01:44:49.705Z,66.56
2018-03-21T01:46:42.458Z,66.75
2018-03-21T01:47:42.379Z,66.84
2018-03-21T01:49:35.195Z,66.65
2018-03-21T01:50:35.120Z,66.34
2018-03-21T01:52:27.950Z,66.56
2018-03-21T01:53:27.821Z,67.22
2018-03-21T01:55:20.612Z,67.00
2018-03-21T01:56:20.508Z,67.00
2018-03-21T01:58:13.243Z,66.71
2018-03-21T01:59:13.165Z,66.90
2018-03-21T02:01:05.923Z,67.00
2018-03-21T02:02:05.850Z,67.00
2018-03-21T02:03:58.589Z,67.19
2018-03-21T02:04:58.520Z,66.71
2018-03-21T02:06:51.280Z,67.09
2018-03-21T02:07:51.203Z,66.90
2018-03-21T02:09:43.967Z,66.90
2018-03-21T02:10:43.876Z,67.38
2018-03-21T02:12:36.626Z,67.47
2018-03-21T02:13:36.575Z,67.28
2018-03-21T02:15:29.336Z,66.90
2018-03-21T02:16:29.246Z,67.38
2018-03-21T02:18:21.997Z,66.90
2018-03-21T02:19:21.934Z,67.38
2018-03-21T02:21:14.683Z,68.13
2018-03-21T02:22:14.601Z,67.75
2018-03-21T02:24:07.350Z,67.75
2018-03-21T02:25:07.277Z,68.04
2018-03-21T02:27:00.040Z,68.13
2018-03-21T02:27:59.953Z,68.32
2018-03-21T02:29:52.714Z,68.13
2018-03-21T02:30:52.625Z,68.13
2018-03-21T02:32:45.392Z,68.70
2018-03-21T02:33:45.302Z,68.79
2018-03-21T02:35:38.043Z,68.98
2018-03-21T02:36:37.971Z,69.26
2018-03-21T02:38:30.718Z,69.26
2018-03-21T02:39:30.648Z,68.88
2018-03-21T02:41:23.400Z,69.35
2018-03-21T02:42:23.324Z,69.73
2018-03-21T02:44:16.082Z,69.54
2018-03-21T02:45:16.013Z,69.35
2018-03-21T02:47:08.795Z,69.54
2018-03-21T02:48:08.710Z,70.02
2018-03-21T02:50:01.463Z,69.73
2018-03-21T02:51:01.373Z,70.20
2018-03-21T02:52:54.121Z,70.20
2018-03-21T02:53:54.049Z,70.58
2018-03-21T02:55:46.820Z,70.68
2018-03-21T02:56:46.727Z,70.58
2018-03-21T02:58:39.502Z,71.06
2018-03-21T02:59:39.404Z,70.96
2018-03-21T03:01:32.163Z,71.15
2018-03-21T03:02:32.077Z,71.53
2018-03-21T03:04:24.821Z,71.34
2018-03-21T03:05:24.744Z,71.43
2018-03-21T03:07:17.507Z,71.53
2018-03-21T03:08:17.442Z,71.25
2018-03-21T03:10:10.204Z,72.00
2018-03-21T03:11:10.096Z,71.34
2018-03-21T03:13:02.847Z,71.81
2018-03-21T03:14:02.777Z,72.00
2018-03-21T03:15:55.517Z,71.68
2018-03-21T03:16:55.441Z,72.06
2018-03-21T03:18:48.245Z,72.25
2018-03-21T03:19:48.131Z,71.87
2018-03-21T03:21:40.882Z,71.91
2018-03-21T03:22:40.803Z,72.47
2018-03-21T03:24:33.543Z,72.28
2018-03-21T03:25:33.471Z,72.81
2018-03-21T03:27:26.246Z,72.44
2018-03-21T03:28:26.137Z,72.44
2018-03-21T03:30:18.886Z,72.62
2018-03-21T03:31:18.806Z,72.62
2018-03-21T03:33:11.586Z,72.25
2018-03-21T03:34:11.491Z,72.44
2018-03-21T03:36:04.241Z,72.44
2018-03-21T03:37:04.156Z,72.44
2018-03-21T03:38:56.912Z,72.72
2018-03-21T03:39:56.834Z,73.00
2018-03-21T03:41:49.601Z,72.91
2018-03-21T03:42:49.517Z,73.00
2018-03-21T03:44:42.272Z,73.38
2018-03-21T03:45:42.189Z,73.00
2018-03-21T03:47:35.014Z,73.10
2018-03-21T03:48:34.863Z,72.91
2018-03-21T03:50:27.604Z,73.00
2018-03-21T03:51:27.536Z,73.57
2018-03-21T03:53:20.302Z,73.47
2018-03-21T03:54:20.211Z,73.38
2018-03-21T03:56:12.962Z,73.66
2018-03-21T03:57:12.886Z,73.85
2018-03-21T03:59:05.645Z,73.94
2018-03-21T04:00:05.554Z,73.75
2018-03-21T04:01:58.310Z,73.94
2018-03-21T04:02:58.224Z,74.13
2018-03-21T04:04:50.975Z,74.04
2018-03-21T04:05:50.928Z,74.13
2018-03-21T04:07:43.658Z,74.13
2018-03-21T04:08:43.576Z,74.13
2018-03-21T04:10:36.323Z,74.51
2018-03-21T04:11:36.267Z,74.13
2018-03-21T04:13:29.097Z,74.13
2018-03-21T04:14:29.018Z,74.13
2018-03-21T04:16:21.796Z,74.41
2018-03-21T04:17:21.704Z,74.13
2018-03-21T04:19:14.444Z,74.22
2018-03-21T04:20:14.369Z,74.04
2018-03-21T04:22:07.129Z,74.41
2018-03-21T04:23:07.038Z,74.04
2018-03-21T04:24:59.788Z,74.32
2018-03-21T04:25:59.717Z,74.41
2018-03-21T04:27:52.470Z,74.04
2018-03-21T04:28:52.402Z,74.41
2018-03-21T04:30:45.132Z,74.32
2018-03-21T04:31:45.062Z,74.04
2018-03-21T04:33:37.848Z,74.51
2018-03-21T04:34:37.728Z,74.13
2018-03-21T04:36:30.490Z,74.32
2018-03-21T04:37:30.431Z,74.13
2018-03-21T04:39:23.199Z,74.51
2018-03-21T04:40:23.117Z,74.22
2018-03-21T04:42:15.878Z,74.22
2018-03-21T04:43:15.788Z,74.41
2018-03-21T04:45:08.534Z,74.32
2018-03-21T04:46:08.469Z,74.32
2018-03-21T04:48:01.219Z,74.13
2018-03-21T04:49:01.130Z,74.41
2018-03-21T04:50:53.879Z,74.04
2018-03-21T04:51:53.816Z,74.22
2018-03-21T04:53:46.561Z,74.41
2018-03-21T04:54:46.478Z,74.41
2018-03-21T04:56:39.228Z,74.69
2018-03-21T04:57:39.148Z,74.60
2018-03-21T04:59:31.905Z,74.22
2018-03-21T05:00:31.825Z,74.13
2018-03-21T05:02:24.577Z,74.41
2018-03-21T05:03:24.497Z,74.22
2018-03-21T05:05:17.236Z,74.41
2018-03-21T05:06:17.156Z,74.32
2018-03-21T05:08:09.918Z,74.51
2018-03-21T05:09:09.854Z,74.51
2018-03-21T05:11:02.579Z,74.22
2018-03-21T05:12:02.500Z,74.41
2018-03-21T05:13:55.275Z,74.22
2018-03-21T05:14:55.194Z,74.22
2018-03-21T05:16:47.974Z,74.32
2018-03-21T05:17:47.905Z,74.32
2018-03-21T05:19:40.820Z,73.98
2018-03-21T05:20:40.751Z,74.07
2018-03-21T05:22:33.502Z,74.26
2018-03-21T05:23:33.420Z,74.13
2018-03-21T05:25:26.278Z,73.69
2018-03-21T05:26:26.109Z,73.60
2018-03-21T05:28:18.888Z,73.88
2018-03-21T05:29:18.795Z,73.51
2018-03-21T05:31:11.550Z,73.13
2018-03-21T05:32:11.456Z,72.75
2018-03-21T05:34:04.220Z,72.00
2018-03-21T05:35:04.136Z,70.62
2018-03-21T05:36:56.886Z,69.67
2018-03-21T05:37:56.816Z,69.86
2018-03-21T05:39:49.589Z,69.58
2018-03-21T05:40:49.528Z,69.67
2018-03-21T05:42:42.268Z,69.96
2018-03-21T05:43:42.201Z,70.05
2018-03-21T05:45:34.973Z,70.62
2018-03-21T05:46:34.892Z,70.24
2018-03-21T05:48:27.657Z,69.86
2018-03-21T05:49:27.562Z,70.05
2018-03-21T05:51:20.318Z,71.00
2018-03-21T05:52:20.255Z,71.47
2018-03-21T05:54:13.009Z,71.88
2018-03-21T05:55:12.940Z,73.96
2018-03-21T05:57:05.675Z,78.87
2018-03-21T05:58:05.595Z,79.67
2018-03-21T05:59:58.379Z,87.18
2018-03-21T06:00:58.294Z,88.69
2018-03-21T06:02:51.059Z,88.55
2018-03-21T06:03:50.986Z,86.66
2018-03-21T06:05:43.752Z,90.20
2018-03-21T06:06:43.664Z,94.74
2018-03-21T06:08:36.427Z,95.12
2018-03-21T06:09:36.342Z,94.46
2018-03-21T06:11:29.136Z,99.47
2018-03-21T06:12:29.040Z,92.66
2018-03-21T06:14:21.791Z,91.24
2018-03-21T06:15:21.704Z,91.24
2018-03-21T06:17:14.720Z,91.15
2018-03-21T06:18:14.629Z,91.81
2018-03-21T06:20:07.411Z,95.07
2018-03-21T06:21:07.294Z,99.43
2018-03-21T06:23:00.040Z,94.79
2018-03-21T06:23:59.973Z,96.88
2018-03-21T06:25:52.765Z,99.99
2018-03-21T06:26:52.726Z,99.99
2018-03-21T06:28:45.490Z,99.76
2018-03-21T06:29:45.368Z,99.99
2018-03-21T06:31:38.140Z,99.99
2018-03-21T06:32:38.088Z,99.99
2018-03-21T06:34:30.830Z,99.99
2018-03-21T06:35:30.788Z,99.99
2018-03-21T06:37:23.518Z,99.99
2018-03-21T06:38:23.448Z,99.99
2018-03-21T06:40:16.232Z,99.99
2018-03-21T06:41:16.146Z,99.99
2018-03-21T06:43:08.901Z,99.99
2018-03-21T06:44:08.840Z,99.99
2018-03-21T06:46:01.613Z,99.99
2018-03-21T06:47:01.530Z,99.99
2018-03-21T06:48:54.308Z,98.87
2018-03-21T06:49:54.240Z,94.65
2018-03-21T06:51:47.031Z,86.15
2018-03-21T06:52:46.946Z,82.77
2018-03-21T06:54:39.721Z,74.16
2018-03-21T06:55:39.648Z,73.40
2018-03-21T06:57:32.419Z,73.11
2018-03-21T06:58:32.357Z,74.26
2018-03-21T07:00:25.142Z,70.20
2018-03-21T07:01:25.062Z,67.82
2018-03-21T07:03:17.826Z,65.48
2018-03-21T07:04:17.764Z,64.05
2018-03-21T07:06:10.565Z,62.08
2018-03-21T07:07:10.478Z,62.56
2018-03-21T07:09:03.265Z,62.18
2018-03-21T07:10:03.205Z,61.80
2018-03-21T07:11:55.994Z,60.46
2018-03-21T07:12:55.917Z,59.23
2018-03-21T07:14:48.752Z,58.59
2018-03-21T07:15:48.661Z,58.11
2018-03-21T07:17:41.444Z,57.57
2018-03-21T07:18:41.390Z,57.35
2018-03-21T07:20:34.181Z,57.35
2018-03-21T07:21:34.111Z,56.87
2018-03-21T07:23:26.885Z,58.11
2018-03-21T07:24:26.826Z,58.34
2018-03-21T07:26:19.667Z,61.96
2018-03-21T07:27:19.551Z,63.29
2018-03-21T07:29:12.326Z,63.10
2018-03-21T07:30:12.270Z,62.24
2018-03-21T07:32:05.097Z,62.72
2018-03-21T07:33:05.013Z,63.51
2018-03-21T07:34:57.793Z,60.53
2018-03-21T07:35:57.738Z,62.75
2018-03-21T07:37:50.539Z,62.72
2018-03-21T07:38:50.488Z,64.37
2018-03-21T07:40:43.261Z,62.08
2018-03-21T07:41:43.183Z,61.10
2018-03-21T07:43:35.963Z,61.51
2018-03-21T07:44:35.956Z,61.61
2018-03-21T07:46:53.287Z,62.37
2018-03-21T07:47:53.181Z,61.04
2018-03-21T07:49:45.978Z,59.16
2018-03-21T07:50:45.945Z,58.75
2018-03-21T07:52:38.740Z,57.76
2018-03-21T07:53:38.645Z,57.76
2018-03-21T07:55:31.414Z,56.65
2018-03-21T07:56:31.356Z,55.60
2018-03-21T07:58:24.155Z,54.90
2018-03-21T07:59:24.078Z,55.38
2018-03-21T08:01:16.911Z,58.24
2018-03-21T08:02:16.848Z,57.38
2018-03-21T08:04:09.582Z,55.31
2018-03-21T08:05:09.582Z,54.00
2018-03-21T08:07:02.323Z,52.09
2018-03-21T08:08:02.244Z,52.50
2018-03-21T08:09:55.010Z,51.17
2018-03-21T08:10:54.957Z,50.78
2018-03-21T08:12:47.744Z,52.04
2018-03-21T08:13:47.682Z,53.54
2018-03-21T08:15:40.464Z,53.69
2018-03-21T08:16:40.409Z,51.81
2018-03-21T08:18:33.213Z,51.23
2018-03-21T08:19:33.190Z,50.57
2018-03-21T08:21:25.957Z,48.99
2018-03-21T08:22:25.895Z,47.85
2018-03-21T08:24:18.675Z,47.18
2018-03-21T08:25:18.625Z,47.34
2018-03-21T08:27:11.440Z,48.07
2018-03-21T08:28:11.369Z,49.40
2018-03-21T08:30:04.153Z,48.49
2018-03-21T08:31:04.097Z,47.63
2018-03-21T08:32:56.893Z,47.75
2018-03-21T08:33:56.823Z,47.20
2018-03-21T08:35:49.612Z,46.99
2018-03-21T08:36:49.555Z,45.84
2018-03-21T08:38:42.352Z,46.22
2018-03-21T08:39:42.284Z,46.13
2018-03-21T08:41:35.091Z,45.58
2018-03-21T08:42:35.025Z,45.17
2018-03-21T08:44:27.815Z,44.74
2018-03-21T08:45:27.752Z,46.01
2018-03-21T08:47:20.556Z,47.27
2018-03-21T08:48:20.482Z,45.46
2018-03-21T08:50:13.282Z,46.17
2018-03-21T08:51:13.218Z,43.33
2018-03-21T08:53:06.019Z,46.51
2018-03-21T08:54:05.946Z,47.39
2018-03-21T08:55:58.735Z,46.80
2018-03-21T08:56:58.724Z,48.18
2018-03-21T08:58:51.485Z,46.20
2018-03-21T08:59:51.413Z,44.89
2018-03-21T09:01:44.248Z,45.34
2018-03-21T09:02:44.146Z,45.08
2018-03-21T09:04:36.994Z,44.41
2018-03-21T09:05:36.943Z,44.79
2018-03-21T09:07:29.762Z,43.21
2018-03-21T09:08:29.673Z,42.81
2018-03-21T09:10:22.457Z,43.76
2018-03-21T09:11:22.393Z,43.36
2018-03-21T09:13:15.195Z,44.56
2018-03-21T09:14:15.122Z,46.18
2018-03-21T09:16:07.930Z,45.61
2018-03-21T09:17:07.868Z,45.03
2018-03-21T09:19:00.654Z,46.08
2018-03-21T09:20:00.583Z,45.22
2018-03-21T09:21:53.360Z,44.87
2018-03-21T09:22:53.300Z,44.53
2018-03-21T09:24:46.096Z,42.44
2018-03-21T09:25:46.028Z,41.47
2018-03-21T09:27:38.829Z,42.07
2018-03-21T09:28:38.760Z,41.58
2018-03-21T09:30:31.533Z,39.64
2018-03-21T09:31:31.479Z,40.57
2018-03-21T09:33:24.279Z,42.55
2018-03-21T09:34:24.232Z,43.70
2018-03-21T09:36:16.980Z,44.38
2018-03-21T09:37:16.925Z,43.33
2018-03-21T09:39:09.755Z,43.62
2018-03-21T09:40:09.649Z,43.53
2018-03-21T09:42:02.420Z,42.84
2018-03-21T09:43:02.398Z,42.44
2018-03-21T09:44:55.155Z,43.91
2018-03-21T09:45:55.089Z,46.20
2018-03-21T09:47:47.945Z,46.70
2018-03-21T09:48:47.870Z,47.37
2018-03-21T09:50:40.662Z,45.68
2018-03-21T09:51:40.584Z,47.18
2018-03-21T09:53:33.374Z,48.03
2018-03-21T09:54:33.296Z,48.42
2018-03-21T09:56:26.064Z,49.87
2018-03-21T09:57:26.000Z,49.04
2018-03-21T09:59:18.798Z,48.16
2018-03-21T10:00:18.725Z,47.49
2018-03-21T10:02:11.507Z,47.87
2018-03-21T10:03:11.446Z,48.06
2018-03-21T10:05:04.230Z,48.47
2018-03-21T10:06:04.157Z,48.06
2018-03-21T10:07:56.945Z,49.11
2018-03-21T10:08:56.875Z,49.11
2018-03-21T10:10:49.641Z,49.01
2018-03-21T10:11:49.587Z,50.35
2018-03-21T10:13:42.371Z,49.13
2018-03-21T10:14:42.290Z,48.18
2018-03-21T10:16:35.079Z,47.16
2018-03-21T10:17:35.007Z,47.92
2018-03-21T10:19:27.804Z,47.56
2018-03-21T10:20:27.734Z,45.99
2018-03-21T10:22:20.498Z,47.58
2018-03-21T10:23:20.481Z,48.27
2018-03-21T10:25:13.218Z,48.11
2018-03-21T10:26:13.141Z,47.63
2018-03-21T10:28:05.977Z,46.78
2018-03-21T10:29:05.872Z,46.87
2018-03-21T10:30:58.642Z,46.89
2018-03-21T10:31:58.571Z,44.99
2018-03-21T10:33:51.347Z,44.23
2018-03-21T10:34:51.278Z,43.96
2018-03-21T10:36:44.086Z,44.25
2018-03-21T10:37:43.984Z,43.98
2018-03-21T10:39:36.765Z,43.32
2018-03-21T10:40:36.682Z,42.65
2018-03-21T10:42:29.450Z,43.29
2018-03-21T10:43:29.386Z,43.03
2018-03-21T10:45:22.185Z,43.49
2018-03-21T10:46:22.104Z,43.46
2018-03-21T10:48:14.888Z,43.46
2018-03-21T10:49:14.878Z,43.35
2018-03-21T10:51:07.749Z,44.04
2018-03-21T10:52:07.533Z,44.32
2018-03-21T10:54:00.315Z,44.39
2018-03-21T10:55:00.237Z,44.78
2018-03-21T10:56:53.029Z,45.25
2018-03-21T10:57:52.961Z,47.06
2018-03-21T10:59:45.752Z,47.61
2018-03-21T11:00:45.681Z,48.18
2018-03-21T11:02:38.454Z,47.80
2018-03-21T11:03:38.391Z,47.78
2018-03-21T11:05:31.176Z,48.08
2018-03-21T11:06:31.108Z,47.25
2018-03-21T11:08:23.881Z,47.73
2018-03-21T11:09:23.832Z,47.58
2018-03-21T11:11:16.602Z,48.63
2018-03-21T11:12:16.523Z,49.42
2018-03-21T11:14:09.314Z,49.80
2018-03-21T11:15:09.239Z,49.90
2018-03-21T11:17:01.998Z,48.18
2018-03-21T11:18:01.948Z,48.37
2018-03-21T11:19:54.725Z,49.30
2018-03-21T11:20:54.655Z,49.23
2018-03-21T11:22:47.428Z,48.18
2018-03-21T11:23:47.366Z,48.27
2018-03-21T11:25:40.152Z,48.44
2018-03-21T11:26:40.073Z,49.40
2018-03-21T11:28:32.850Z,49.32
2018-03-21T11:29:32.790Z,48.47
2018-03-21T11:31:25.565Z,48.16
2018-03-21T11:32:25.504Z,48.82
2018-03-21T11:34:18.270Z,49.27
2018-03-21T11:35:18.207Z,50.42
2018-03-21T11:37:10.991Z,51.15
2018-03-21T11:38:10.913Z,51.82
2018-03-21T11:40:03.692Z,52.45
2018-03-21T11:41:03.625Z,53.63
2018-03-21T11:42:56.394Z,53.43
2018-03-21T11:43:56.332Z,53.55
2018-03-21T11:45:49.109Z,52.61
2018-03-21T11:46:49.048Z,52.80
2018-03-21T11:48:41.805Z,52.61
2018-03-21T11:49:41.743Z,51.82
2018-03-21T11:51:34.524Z,52.01
2018-03-21T11:52:34.454Z,52.58
2018-03-21T11:54:27.208Z,53.24
2018-03-21T11:55:27.149Z,53.53
2018-03-21T11:57:19.928Z,53.03
2018-03-21T11:58:19.852Z,52.74
2018-03-21T12:00:12.647Z,54.26
2018-03-21T12:01:12.562Z,55.40
2018-03-21T12:03:05.332Z,55.50
2018-03-21T12:04:05.268Z,55.09
2018-03-21T12:05:58.049Z,55.69
2018-03-21T12:06:57.981Z,56.63
2018-03-21T12:08:50.726Z,55.59
2018-03-21T12:09:50.668Z,53.97
2018-03-21T12:11:43.449Z,54.14
2018-03-21T12:12:43.370Z,55.57
2018-03-21T12:14:36.194Z,55.88
2018-03-21T12:15:36.092Z,54.74
2018-03-21T12:17:28.872Z,54.83
2018-03-21T12:18:28.787Z,54.26
2018-03-21T12:20:21.565Z,53.50
2018-03-21T12:21:21.494Z,53.22
2018-03-21T12:23:14.286Z,52.36
2018-03-21T12:24:14.227Z,53.72
2018-03-21T12:26:06.987Z,52.96
2018-03-21T12:27:06.908Z,53.63
2018-03-21T12:28:59.668Z,52.55
2018-03-21T12:29:59.611Z,51.70
2018-03-21T12:31:52.388Z,51.70
2018-03-21T12:32:52.360Z,52.45
2018-03-21T12:34:45.078Z,52.84
2018-03-21T12:35:45.012Z,52.26
2018-03-21T12:37:37.804Z,54.36
2018-03-21T12:38:37.726Z,53.59
2018-03-21T12:40:30.524Z,52.08
2018-03-21T12:41:30.428Z,51.82
2018-03-21T12:43:23.204Z,51.62
2018-03-21T12:44:23.151Z,52.08
2018-03-21T12:46:15.925Z,52.17
2018-03-21T12:47:15.854Z,51.60
2018-03-21T12:49:08.602Z,51.22
2018-03-21T12:50:08.578Z,51.53
2018-03-21T12:52:01.292Z,51.79
2018-03-21T12:53:01.217Z,51.91
2018-03-21T12:54:53.996Z,51.31
2018-03-21T12:55:53.954Z,51.43
2018-03-21T12:57:46.701Z,51.06
2018-03-21T12:58:46.626Z,50.87
2018-03-21T13:00:39.388Z,50.48
2018-03-21T13:01:39.324Z,50.10
2018-03-21T13:03:32.112Z,50.48
2018-03-21T13:04:32.039Z,50.58
2018-03-21T13:06:24.805Z,49.54
2018-03-21T13:07:24.740Z,49.91
2018-03-21T13:09:17.488Z,50.58
2018-03-21T13:10:17.428Z,50.68
2018-03-21T13:12:10.198Z,49.63
2018-03-21T13:13:10.121Z,49.73
2018-03-21T13:15:02.905Z,50.58
2018-03-21T13:16:02.812Z,51.18
2018-03-21T13:17:55.586Z,51.62
2018-03-21T13:18:55.518Z,50.58
2018-03-21T13:20:48.280Z,48.99
2018-03-21T13:21:48.269Z,49.35
2018-03-21T13:23:40.993Z,49.63
2018-03-21T13:24:40.924Z,49.06
2018-03-21T13:26:33.707Z,48.01
2018-03-21T13:27:33.628Z,48.77
2018-03-21T13:29:26.407Z,49.54
2018-03-21T13:30:26.342Z,48.96
2018-03-21T13:32:19.122Z,48.11
2018-03-21T13:33:19.051Z,48.21
2018-03-21T13:35:11.814Z,48.11
2018-03-21T13:36:11.740Z,48.01
2018-03-21T13:38:04.515Z,49.82
2018-03-21T13:39:04.439Z,49.13
2018-03-21T13:40:57.204Z,51.41
2018-03-21T13:41:57.129Z,50.74
2018-03-21T13:43:49.909Z,51.03
2018-03-21T13:44:49.833Z,50.37
2018-03-21T13:46:42.597Z,50.74
2018-03-21T13:47:42.521Z,50.46
2018-03-21T13:49:35.290Z,50.72
2018-03-21T13:50:35.219Z,50.43
2018-03-21T13:52:28.024Z,50.91
2018-03-21T13:53:27.919Z,51.12
2018-03-21T13:55:20.694Z,49.51
2018-03-21T13:56:20.626Z,48.94
2018-03-21T13:58:13.407Z,49.04
2018-03-21T13:59:13.351Z,48.94
2018-03-21T14:01:06.119Z,48.18
2018-03-21T14:02:06.028Z,48.46
2018-03-21T14:03:58.812Z,49.13
2018-03-21T14:04:58.733Z,49.13
2018-03-21T14:06:51.500Z,49.04
2018-03-21T14:07:51.431Z,48.87
2018-03-21T14:09:44.194Z,48.37
2018-03-21T14:10:44.118Z,48.85
2018-03-21T14:12:36.908Z,49.70
2018-03-21T14:13:36.843Z,49.41
2018-03-21T14:15:29.607Z,49.79
2018-03-21T14:16:29.522Z,50.27
2018-03-21T14:18:22.293Z,49.70
2018-03-21T14:19:22.223Z,49.13
2018-03-21T14:21:15.001Z,49.60
2018-03-21T14:22:14.956Z,49.13
2018-03-21T14:24:07.701Z,49.79
2018-03-21T14:25:07.625Z,49.22
2018-03-21T14:27:00.392Z,47.97
2018-03-21T14:28:00.330Z,48.44
2018-03-21T14:29:53.125Z,49.39
2018-03-21T14:30:53.041Z,48.72
2018-03-21T14:32:45.816Z,49.96
2018-03-21T14:33:45.731Z,50.08
2018-03-21T14:35:38.518Z,49.20
2018-03-21T14:36:38.429Z,48.82
2018-03-21T14:38:31.231Z,50.37
2018-03-21T14:39:31.152Z,49.04
2018-03-21T14:41:24.080Z,49.60
2018-03-21T14:42:24.006Z,49.70
2018-03-21T14:44:16.799Z,50.56
2018-03-21T14:45:16.716Z,49.77
2018-03-21T14:47:09.507Z,49.29
2018-03-21T14:48:09.457Z,49.49
2018-03-21T14:50:02.224Z,50.74
2018-03-21T14:51:02.146Z,49.77
2018-03-21T14:52:54.920Z,49.87
2018-03-21T14:53:54.864Z,48.66
2018-03-21T14:55:47.619Z,48.27
2018-03-21T14:56:47.548Z,48.25
2018-03-21T14:58:40.319Z,47.58
2018-03-21T14:59:40.240Z,48.94
2018-03-21T15:01:33.020Z,47.87
2018-03-21T15:02:32.943Z,48.91
2018-03-21T15:04:25.721Z,47.77
2018-03-21T15:05:25.632Z,47.58
2018-03-21T15:07:18.390Z,47.20
2018-03-21T15:08:18.331Z,47.42
2018-03-21T15:10:11.150Z,48.91
2018-03-21T15:11:11.050Z,50.34
2018-03-21T15:13:03.821Z,50.74
2018-03-21T15:14:03.755Z,51.10
2018-03-21T15:15:56.542Z,50.05
2018-03-21T15:16:56.454Z,50.81
2018-03-21T15:18:49.234Z,50.72
2018-03-21T15:19:49.153Z,50.81
2018-03-21T15:21:41.942Z,50.91
2018-03-21T15:22:41.881Z,51.48
2018-03-21T15:24:34.650Z,51.76
2018-03-21T15:25:34.624Z,52.05
2018-03-21T15:27:27.360Z,52.91
2018-03-21T15:28:27.338Z,53.47
2018-03-21T15:30:20.075Z,52.91
2018-03-21T15:31:19.990Z,53.57
2018-03-21T15:33:12.771Z,53.38
2018-03-21T15:34:12.691Z,53.57
2018-03-21T15:36:05.471Z,52.81
2018-03-21T15:37:05.392Z,53.09
2018-03-21T15:38:58.182Z,52.33
2018-03-21T15:39:58.104Z,52.24
2018-03-21T15:41:50.876Z,52.43
2018-03-21T15:42:50.807Z,53.00
2018-03-21T15:44:43.589Z,53.85
2018-03-21T15:45:43.519Z,53.95
2018-03-21T15:47:36.300Z,54.68
2018-03-21T15:48:36.223Z,55.57
2018-03-21T15:50:29.003Z,55.16
2018-03-21T15:51:28.926Z,55.91
2018-03-21T15:53:21.713Z,55.54
2018-03-21T15:54:21.623Z,55.82
2018-03-21T15:56:14.394Z,56.20
2018-03-21T15:57:14.320Z,55.63
2018-03-21T15:59:07.114Z,56.39
2018-03-21T16:00:07.069Z,56.68
2018-03-21T16:01:59.815Z,57.24
2018-03-21T16:02:59.743Z,56.77
2018-03-21T16:04:52.531Z,57.72
2018-03-21T16:05:52.451Z,57.62
2018-03-21T16:07:45.243Z,58.39
2018-03-21T16:08:45.180Z,58.48
2018-03-21T16:10:37.965Z,59.05
2018-03-21T16:11:37.894Z,58.58
2018-03-21T16:13:30.651Z,58.67
2018-03-21T16:14:30.773Z,58.48
2018-03-21T16:16:23.402Z,58.95
2018-03-21T16:17:23.313Z,59.24
2018-03-21T16:19:16.084Z,59.91
2018-03-21T16:20:16.000Z,59.05
2018-03-21T16:22:08.781Z,60.10
2018-03-21T16:23:08.728Z,61.04
2018-03-21T16:25:01.486Z,59.62
2018-03-21T16:26:01.405Z,61.61
2018-03-21T16:27:54.208Z,61.90
2018-03-21T16:28:54.126Z,60.85
2018-03-21T16:30:46.900Z,61.99
2018-03-21T16:31:46.834Z,62.85
2018-03-21T16:33:39.586Z,61.96
2018-03-21T16:34:39.514Z,62.53
2018-03-21T16:36:32.296Z,61.96
2018-03-21T16:37:32.220Z,63.39
2018-03-21T16:39:24.989Z,64.05
2018-03-21T16:40:24.921Z,63.29
2018-03-21T16:42:17.690Z,64.81
2018-03-21T16:43:17.602Z,64.05
2018-03-21T16:45:10.390Z,63.95
2018-03-21T16:46:10.309Z,65.28
2018-03-21T16:48:03.104Z,65.66
2018-03-21T16:49:03.002Z,66.04
2018-03-21T16:50:55.788Z,67.27
2018-03-21T16:51:55.704Z,69.36
2018-03-21T16:53:48.470Z,70.31
2018-03-21T16:54:48.420Z,68.51
2018-03-21T16:56:41.188Z,69.33
2018-03-21T16:57:41.112Z,70.84
2018-03-21T16:59:33.887Z,71.32
2018-03-21T17:00:33.804Z,69.80
2018-03-21T17:02:26.586Z,72.93
2018-03-21T17:03:26.503Z,73.50
2018-03-21T17:05:19.318Z,71.41
2018-03-21T17:06:19.238Z,71.13
2018-03-21T17:08:11.988Z,72.84
2018-03-21T17:09:11.947Z,73.79
2018-03-21T17:11:04.707Z,74.54
2018-03-21T17:12:04.624Z,77.29
2018-03-21T17:13:57.409Z,75.31
2018-03-21T17:14:57.340Z,75.49
2018-03-21T17:16:50.107Z,75.40
2018-03-21T17:17:50.023Z,76.15
2018-03-21T17:19:42.804Z,77.96
2018-03-21T17:20:42.711Z,77.96
2018-03-21T17:22:35.548Z,77.39
2018-03-21T17:23:35.420Z,79.38
2018-03-21T17:25:28.210Z,80.43
2018-03-21T17:26:28.124Z,79.19
2018-03-21T17:28:20.895Z,77.20
2018-03-21T17:29:20.826Z,81.27
2018-03-21T17:31:13.618Z,79.00
2018-03-21T17:32:13.517Z,80.33
2018-03-21T17:34:06.304Z,79.19
2018-03-21T17:35:06.225Z,79.76
2018-03-21T17:36:59.008Z,79.57
2018-03-21T17:37:58.920Z,80.43
2018-03-21T17:39:51.721Z,81.56
2018-03-21T17:40:51.634Z,79.95
2018-03-21T17:42:44.412Z,83.17
2018-03-21T17:43:44.324Z,80.04
2018-03-21T17:45:37.086Z,81.37
2018-03-21T17:46:37.040Z,78.91
2018-03-21T17:48:29.801Z,80.80
2018-03-21T17:49:29.720Z,82.89
2018-03-21T17:51:22.498Z,79.85
2018-03-21T17:52:22.421Z,80.80
2018-03-21T17:54:15.181Z,81.18
2018-03-21T17:55:15.121Z,82.04
2018-03-21T17:57:07.882Z,83.74
2018-03-21T17:58:07.810Z,83.65
2018-03-21T18:00:00.598Z,85.17
2018-03-21T18:01:00.523Z,84.31
2018-03-21T18:02:53.285Z,85.55
2018-03-21T18:03:53.203Z,85.45
2018-03-21T18:05:45.962Z,86.97
2018-03-21T18:06:45.896Z,85.93
2018-03-21T18:08:38.656Z,85.93
2018-03-21T18:09:38.578Z,85.26
2018-03-21T18:11:31.347Z,84.50
2018-03-21T18:12:31.286Z,86.87
2018-03-21T18:14:24.036Z,84.59
2018-03-21T18:15:23.958Z,85.17
2018-03-21T18:17:16.732Z,84.50
2018-03-21T18:18:16.657Z,84.22
2018-03-21T18:20:09.402Z,84.31
2018-03-21T18:21:09.336Z,84.22
2018-03-21T18:23:02.127Z,84.41
2018-03-21T18:24:02.032Z,85.64
2018-03-21T18:25:54.853Z,84.98
2018-03-21T18:26:54.783Z,84.59
2018-03-21T18:28:47.604Z,84.98
2018-03-21T18:29:47.487Z,85.07
2018-03-21T18:31:40.245Z,84.88